sensor_id;sensor_type;location;lat;lon;timestamp;temperature;humidity
16032;DHT22;8120;48.308;8.914;2023-07-28T00:00:26;16.90;75.00
16032;DHT22;8120;48.308;8.914;2023-07-28T00:02:54;16.90;74.70
16032;DHT22;8120;48.308;8.914;2023-07-28T00:05:22;16.90;75.00
16032;DHT22;8120;48.308;8.914;2023-07-28T00:07:51;16.90;74.70
16032;DHT22;8120;48.308;8.914;2023-07-28T00:10:19;16.90;75.00
16032;DHT22;8120;48.308;8.914;2023-07-28T00:12:47;16.90;74.90
16032;DHT22;8120;48.308;8.914;2023-07-28T00:15:15;16.80;75.20
16032;DHT22;8120;48.308;8.914;2023-07-28T00:17:42;16.90;75.10
16032;DHT22;8120;48.308;8.914;2023-07-28T00:20:11;17.00;74.90
16032;DHT22;8120;48.308;8.914;2023-07-28T00:22:39;17.00;74.60
16032;DHT22;8120;48.308;8.914;2023-07-28T00:25:09;17.10;74.40
16032;DHT22;8120;48.308;8.914;2023-07-28T00:27:37;17.20;74.10
16032;DHT22;8120;48.308;8.914;2023-07-28T00:30:05;17.30;73.60
16032;DHT22;8120;48.308;8.914;2023-07-28T00:32:34;17.30;73.70
16032;DHT22;8120;48.308;8.914;2023-07-28T00:35:01;17.20;73.60
16032;DHT22;8120;48.308;8.914;2023-07-28T00:37:29;17.20;73.90
16032;DHT22;8120;48.308;8.914;2023-07-28T00:39:57;17.20;73.60
16032;DHT22;8120;48.308;8.914;2023-07-28T00:42:26;17.30;73.60
16032;DHT22;8120;48.308;8.914;2023-07-28T00:44:54;17.30;73.60
16032;DHT22;8120;48.308;8.914;2023-07-28T00:47:22;17.20;73.80
16032;DHT22;8120;48.308;8.914;2023-07-28T00:49:50;17.20;73.70
16032;DHT22;8120;48.308;8.914;2023-07-28T00:52:18;17.20;73.80
16032;DHT22;8120;48.308;8.914;2023-07-28T00:54:46;17.10;73.90
16032;DHT22;8120;48.308;8.914;2023-07-28T00:57:14;17.00;74.40
16032;DHT22;8120;48.308;8.914;2023-07-28T00:59:44;17.00;74.80
16032;DHT22;8120;48.308;8.914;2023-07-28T01:02:15;16.90;74.70
16032;DHT22;8120;48.308;8.914;2023-07-28T01:04:43;16.80;75.30
16032;DHT22;8120;48.308;8.914;2023-07-28T01:07:15;16.70;75.70
16032;DHT22;8120;48.308;8.914;2023-07-28T01:09:52;16.60;76.00
16032;DHT22;8120;48.308;8.914;2023-07-28T01:12:20;16.70;76.10
16032;DHT22;8120;48.308;8.914;2023-07-28T01:14:50;16.80;75.70
16032;DHT22;8120;48.308;8.914;2023-07-28T01:17:18;16.70;76.00
16032;DHT22;8120;48.308;8.914;2023-07-28T01:19:46;16.70;75.90
16032;DHT22;8120;48.308;8.914;2023-07-28T01:22:31;16.60;76.40
16032;DHT22;8120;48.308;8.914;2023-07-28T01:25:08;16.50;76.60
16032;DHT22;8120;48.308;8.914;2023-07-28T01:27:43;16.30;77.30
16032;DHT22;8120;48.308;8.914;2023-07-28T01:30:12;16.10;78.00
16032;DHT22;8120;48.308;8.914;2023-07-28T01:32:40;15.90;78.40
16032;DHT22;8120;48.308;8.914;2023-07-28T01:35:08;15.70;79.10
16032;DHT22;8120;48.308;8.914;2023-07-28T01:37:36;15.40;80.10
16032;DHT22;8120;48.308;8.914;2023-07-28T01:40:05;15.20;81.10
16032;DHT22;8120;48.308;8.914;2023-07-28T01:42:33;15.00;81.90
16032;DHT22;8120;48.308;8.914;2023-07-28T01:45:03;14.90;82.50
16032;DHT22;8120;48.308;8.914;2023-07-28T01:47:32;14.70;82.60
16032;DHT22;8120;48.308;8.914;2023-07-28T01:50:00;14.60;83.70
16032;DHT22;8120;48.308;8.914;2023-07-28T01:52:28;14.50;84.60
16032;DHT22;8120;48.308;8.914;2023-07-28T01:54:56;14.50;84.70
16032;DHT22;8120;48.308;8.914;2023-07-28T01:57:24;14.40;85.30
16032;DHT22;8120;48.308;8.914;2023-07-28T01:59:53;14.40;85.80
16032;DHT22;8120;48.308;8.914;2023-07-28T02:02:23;14.40;85.50
16032;DHT22;8120;48.308;8.914;2023-07-28T02:04:51;14.40;85.30
16032;DHT22;8120;48.308;8.914;2023-07-28T02:07:18;14.30;85.70
16032;DHT22;8120;48.308;8.914;2023-07-28T02:09:46;14.30;86.10
16032;DHT22;8120;48.308;8.914;2023-07-28T02:12:14;14.20;86.50
16032;DHT22;8120;48.308;8.914;2023-07-28T02:14:42;14.10;87.00
16032;DHT22;8120;48.308;8.914;2023-07-28T02:17:10;14.10;87.00
16032;DHT22;8120;48.308;8.914;2023-07-28T02:19:39;14.00;87.60
16032;DHT22;8120;48.308;8.914;2023-07-28T02:22:07;14.00;88.50
16032;DHT22;8120;48.308;8.914;2023-07-28T02:24:35;14.00;88.80
16032;DHT22;8120;48.308;8.914;2023-07-28T02:27:03;14.10;88.50
16032;DHT22;8120;48.308;8.914;2023-07-28T02:29:31;14.10;88.10
16032;DHT22;8120;48.308;8.914;2023-07-28T02:31:59;14.10;88.00
16032;DHT22;8120;48.308;8.914;2023-07-28T02:34:27;14.10;88.00
16032;DHT22;8120;48.308;8.914;2023-07-28T02:36:57;14.00;88.30
16032;DHT22;8120;48.308;8.914;2023-07-28T02:39:25;14.00;88.50
16032;DHT22;8120;48.308;8.914;2023-07-28T02:41:53;14.00;88.70
16032;DHT22;8120;48.308;8.914;2023-07-28T02:44:21;14.00;88.10
16032;DHT22;8120;48.308;8.914;2023-07-28T02:46:49;14.10;88.00
16032;DHT22;8120;48.308;8.914;2023-07-28T02:49:17;14.30;88.30
16032;DHT22;8120;48.308;8.914;2023-07-28T02:51:44;14.60;87.00
16032;DHT22;8120;48.308;8.914;2023-07-28T02:54:14;14.80;86.00
16032;DHT22;8120;48.308;8.914;2023-07-28T02:56:41;15.00;85.00
16032;DHT22;8120;48.308;8.914;2023-07-28T02:59:09;15.20;84.10
16032;DHT22;8120;48.308;8.914;2023-07-28T03:01:38;15.50;82.80
16032;DHT22;8120;48.308;8.914;2023-07-28T03:04:06;15.70;81.70
16032;DHT22;8120;48.308;8.914;2023-07-28T03:06:34;15.80;81.50
16032;DHT22;8120;48.308;8.914;2023-07-28T03:09:02;15.80;81.30
16032;DHT22;8120;48.308;8.914;2023-07-28T03:11:32;15.80;81.10
16032;DHT22;8120;48.308;8.914;2023-07-28T03:14:00;15.80;81.20
16032;DHT22;8120;48.308;8.914;2023-07-28T03:16:27;15.80;81.20
16032;DHT22;8120;48.308;8.914;2023-07-28T03:18:55;15.80;81.30
16032;DHT22;8120;48.308;8.914;2023-07-28T03:21:23;15.80;81.20
16032;DHT22;8120;48.308;8.914;2023-07-28T03:23:51;15.80;81.00
16032;DHT22;8120;48.308;8.914;2023-07-28T03:26:19;15.80;81.20
16032;DHT22;8120;48.308;8.914;2023-07-28T03:28:48;15.90;80.90
16032;DHT22;8120;48.308;8.914;2023-07-28T03:31:16;15.90;80.50
16032;DHT22;8120;48.308;8.914;2023-07-28T03:33:44;16.00;80.40
16032;DHT22;8120;48.308;8.914;2023-07-28T03:36:12;15.90;80.60
16032;DHT22;8120;48.308;8.914;2023-07-28T03:38:40;15.90;81.00
16032;DHT22;8120;48.308;8.914;2023-07-28T03:41:08;15.90;81.10
16032;DHT22;8120;48.308;8.914;2023-07-28T03:43:36;15.80;81.10
16032;DHT22;8120;48.308;8.914;2023-07-28T03:46:05;15.90;80.90
16032;DHT22;8120;48.308;8.914;2023-07-28T03:48:33;15.90;81.10
16032;DHT22;8120;48.308;8.914;2023-07-28T03:53:35;15.80;81.40
16032;DHT22;8120;48.308;8.914;2023-07-28T03:56:04;15.60;82.10
16032;DHT22;8120;48.308;8.914;2023-07-28T03:58:32;15.50;82.50
16032;DHT22;8120;48.308;8.914;2023-07-28T04:01:00;15.40;83.20
16032;DHT22;8120;48.308;8.914;2023-07-28T04:03:28;15.40;82.60
16032;DHT22;8120;48.308;8.914;2023-07-28T04:05:56;15.40;83.50
16032;DHT22;8120;48.308;8.914;2023-07-28T04:08:24;15.40;83.20
16032;DHT22;8120;48.308;8.914;2023-07-28T04:10:52;15.30;83.70
16032;DHT22;8120;48.308;8.914;2023-07-28T04:13:20;15.40;83.40
16032;DHT22;8120;48.308;8.914;2023-07-28T04:15:48;15.50;83.10
16032;DHT22;8120;48.308;8.914;2023-07-28T04:18:16;15.60;82.90
16032;DHT22;8120;48.308;8.914;2023-07-28T04:20:46;15.70;82.20
16032;DHT22;8120;48.308;8.914;2023-07-28T04:23:13;15.80;81.80
16032;DHT22;8120;48.308;8.914;2023-07-28T04:25:41;15.90;81.70
16032;DHT22;8120;48.308;8.914;2023-07-28T04:28:09;16.30;80.00
16032;DHT22;8120;48.308;8.914;2023-07-28T04:30:37;16.50;79.30
16032;DHT22;8120;48.308;8.914;2023-07-28T04:33:05;16.50;79.10
16032;DHT22;8120;48.308;8.914;2023-07-28T04:35:33;16.50;79.10
16032;DHT22;8120;48.308;8.914;2023-07-28T04:38:02;16.60;79.00
16032;DHT22;8120;48.308;8.914;2023-07-28T04:40:30;16.70;78.60
16032;DHT22;8120;48.308;8.914;2023-07-28T04:42:58;16.80;78.50
16032;DHT22;8120;48.308;8.914;2023-07-28T04:45:27;16.80;78.30
16032;DHT22;8120;48.308;8.914;2023-07-28T04:47:55;16.90;78.00
16032;DHT22;8120;48.308;8.914;2023-07-28T04:50:23;16.90;77.90
16032;DHT22;8120;48.308;8.914;2023-07-28T04:52:50;17.00;77.50
16032;DHT22;8120;48.308;8.914;2023-07-28T04:55:20;17.10;77.50
16032;DHT22;8120;48.308;8.914;2023-07-28T04:57:48;17.10;77.50
16032;DHT22;8120;48.308;8.914;2023-07-28T05:00:16;17.10;77.40
16032;DHT22;8120;48.308;8.914;2023-07-28T05:02:44;17.20;77.30
16032;DHT22;8120;48.308;8.914;2023-07-28T05:05:12;17.20;77.40
16032;DHT22;8120;48.308;8.914;2023-07-28T05:07:39;17.20;77.10
16032;DHT22;8120;48.308;8.914;2023-07-28T05:10:08;17.30;76.70
16032;DHT22;8120;48.308;8.914;2023-07-28T05:12:37;17.40;75.90
16032;DHT22;8120;48.308;8.914;2023-07-28T05:15:06;17.50;75.70
16032;DHT22;8120;48.308;8.914;2023-07-28T05:17:37;17.60;75.30
16032;DHT22;8120;48.308;8.914;2023-07-28T05:20:06;17.70;74.50
16032;DHT22;8120;48.308;8.914;2023-07-28T05:22:34;17.80;74.30
16032;DHT22;8120;48.308;8.914;2023-07-28T05:25:02;17.90;74.30
16032;DHT22;8120;48.308;8.914;2023-07-28T05:27:29;18.00;74.20
16032;DHT22;8120;48.308;8.914;2023-07-28T05:29:59;18.00;73.50
16032;DHT22;8120;48.308;8.914;2023-07-28T05:32:26;18.10;73.10
16032;DHT22;8120;48.308;8.914;2023-07-28T05:34:54;18.10;73.20
16032;DHT22;8120;48.308;8.914;2023-07-28T05:37:22;18.10;73.30
16032;DHT22;8120;48.308;8.914;2023-07-28T05:39:50;18.00;73.50
16032;DHT22;8120;48.308;8.914;2023-07-28T05:42:18;18.00;73.60
16032;DHT22;8120;48.308;8.914;2023-07-28T05:44:46;18.00;74.00
16032;DHT22;8120;48.308;8.914;2023-07-28T05:47:15;18.00;73.70
16032;DHT22;8120;48.308;8.914;2023-07-28T05:49:43;18.00;73.80
16032;DHT22;8120;48.308;8.914;2023-07-28T05:52:11;18.00;73.60
16032;DHT22;8120;48.308;8.914;2023-07-28T05:54:39;18.00;73.50
16032;DHT22;8120;48.308;8.914;2023-07-28T05:57:06;18.10;73.80
16032;DHT22;8120;48.308;8.914;2023-07-28T05:59:35;18.10;73.80
16032;DHT22;8120;48.308;8.914;2023-07-28T06:02:03;18.10;73.60
16032;DHT22;8120;48.308;8.914;2023-07-28T06:04:32;18.10;73.60
16032;DHT22;8120;48.308;8.914;2023-07-28T06:07:00;18.10;73.70
16032;DHT22;8120;48.308;8.914;2023-07-28T06:09:27;18.20;72.80
16032;DHT22;8120;48.308;8.914;2023-07-28T06:11:55;18.30;73.20
16032;DHT22;8120;48.308;8.914;2023-07-28T06:14:23;18.30;74.10
16032;DHT22;8120;48.308;8.914;2023-07-28T06:16:51;18.30;74.60
16032;DHT22;8120;48.308;8.914;2023-07-28T06:19:19;18.20;75.10
16032;DHT22;8120;48.308;8.914;2023-07-28T06:21:52;18.20;75.10
16032;DHT22;8120;48.308;8.914;2023-07-28T06:24:20;18.30;75.00
16032;DHT22;8120;48.308;8.914;2023-07-28T06:26:47;18.30;74.70
16032;DHT22;8120;48.308;8.914;2023-07-28T06:29:17;18.30;75.10
16032;DHT22;8120;48.308;8.914;2023-07-28T06:31:44;18.40;74.30
16032;DHT22;8120;48.308;8.914;2023-07-28T06:34:12;18.50;75.20
16032;DHT22;8120;48.308;8.914;2023-07-28T06:36:40;18.70;74.30
16032;DHT22;8120;48.308;8.914;2023-07-28T06:39:09;18.70;74.20
16032;DHT22;8120;48.308;8.914;2023-07-28T06:41:37;18.80;74.30
16032;DHT22;8120;48.308;8.914;2023-07-28T06:44:05;18.90;74.10
16032;DHT22;8120;48.308;8.914;2023-07-28T06:46:35;19.10;73.30
16032;DHT22;8120;48.308;8.914;2023-07-28T06:49:02;19.20;73.50
16032;DHT22;8120;48.308;8.914;2023-07-28T06:51:30;19.50;72.90
16032;DHT22;8120;48.308;8.914;2023-07-28T06:53:59;19.60;71.20
16032;DHT22;8120;48.308;8.914;2023-07-28T06:56:28;19.70;70.20
16032;DHT22;8120;48.308;8.914;2023-07-28T06:58:56;19.80;70.10
16032;DHT22;8120;48.308;8.914;2023-07-28T07:01:39;20.00;69.40
16032;DHT22;8120;48.308;8.914;2023-07-28T07:04:07;20.40;69.70
16032;DHT22;8120;48.308;8.914;2023-07-28T07:06:35;20.90;67.00
16032;DHT22;8120;48.308;8.914;2023-07-28T07:09:03;21.10;66.80
16032;DHT22;8120;48.308;8.914;2023-07-28T07:11:33;21.10;65.80
16032;DHT22;8120;48.308;8.914;2023-07-28T07:14:02;20.70;65.90
16032;DHT22;8120;48.308;8.914;2023-07-28T07:16:31;20.50;66.50
16032;DHT22;8120;48.308;8.914;2023-07-28T07:18:59;20.30;67.70
16032;DHT22;8120;48.308;8.914;2023-07-28T07:21:28;20.20;68.00
16032;DHT22;8120;48.308;8.914;2023-07-28T07:23:56;20.30;67.50
16032;DHT22;8120;48.308;8.914;2023-07-28T07:26:24;20.40;67.80
16032;DHT22;8120;48.308;8.914;2023-07-28T07:28:53;20.60;67.10
16032;DHT22;8120;48.308;8.914;2023-07-28T07:31:21;20.70;66.50
16032;DHT22;8120;48.308;8.914;2023-07-28T07:33:49;20.60;66.60
16032;DHT22;8120;48.308;8.914;2023-07-28T07:36:19;20.90;67.00
16032;DHT22;8120;48.308;8.914;2023-07-28T07:38:47;20.70;66.50
16032;DHT22;8120;48.308;8.914;2023-07-28T07:41:16;20.90;67.10
16032;DHT22;8120;48.308;8.914;2023-07-28T07:43:46;20.80;66.80
16032;DHT22;8120;48.308;8.914;2023-07-28T07:46:16;20.60;66.80
16032;DHT22;8120;48.308;8.914;2023-07-28T07:48:46;20.60;66.50
16032;DHT22;8120;48.308;8.914;2023-07-28T07:51:15;20.50;67.20
16032;DHT22;8120;48.308;8.914;2023-07-28T07:53:43;20.80;67.60
16032;DHT22;8120;48.308;8.914;2023-07-28T07:56:11;21.00;67.10
16032;DHT22;8120;48.308;8.914;2023-07-28T07:58:39;21.00;66.40
16032;DHT22;8120;48.308;8.914;2023-07-28T08:01:06;21.20;65.60
16032;DHT22;8120;48.308;8.914;2023-07-28T08:03:36;21.50;64.90
16032;DHT22;8120;48.308;8.914;2023-07-28T08:06:04;21.40;64.30
16032;DHT22;8120;48.308;8.914;2023-07-28T08:08:32;21.20;65.10
16032;DHT22;8120;48.308;8.914;2023-07-28T08:11:00;21.10;65.70
16032;DHT22;8120;48.308;8.914;2023-07-28T08:13:29;21.30;65.50
16032;DHT22;8120;48.308;8.914;2023-07-28T08:15:56;21.60;64.70
16032;DHT22;8120;48.308;8.914;2023-07-28T08:18:25;22.10;64.00
16032;DHT22;8120;48.308;8.914;2023-07-28T08:20:54;23.10;61.60
16032;DHT22;8120;48.308;8.914;2023-07-28T08:23:22;23.40;59.80
16032;DHT22;8120;48.308;8.914;2023-07-28T08:25:50;23.80;59.30
16032;DHT22;8120;48.308;8.914;2023-07-28T08:28:17;24.50;57.70
16032;DHT22;8120;48.308;8.914;2023-07-28T08:30:54;25.20;54.90
16032;DHT22;8120;48.308;8.914;2023-07-28T08:33:22;24.70;55.70
16032;DHT22;8120;48.308;8.914;2023-07-28T08:35:50;24.30;56.40
16032;DHT22;8120;48.308;8.914;2023-07-28T08:38:20;23.90;55.80
16032;DHT22;8120;48.308;8.914;2023-07-28T08:40:47;23.50;57.80
16032;DHT22;8120;48.308;8.914;2023-07-28T08:43:16;23.60;57.40
16032;DHT22;8120;48.308;8.914;2023-07-28T08:45:43;23.70;57.90
16032;DHT22;8120;48.308;8.914;2023-07-28T08:48:11;23.30;56.60
16032;DHT22;8120;48.308;8.914;2023-07-28T08:50:40;23.00;58.30
16032;DHT22;8120;48.308;8.914;2023-07-28T08:53:08;22.70;59.50
16032;DHT22;8120;48.308;8.914;2023-07-28T08:55:37;22.70;60.10
16032;DHT22;8120;48.308;8.914;2023-07-28T08:58:15;23.20;59.20
16032;DHT22;8120;48.308;8.914;2023-07-28T09:00:43;23.50;57.80
16032;DHT22;8120;48.308;8.914;2023-07-28T09:03:12;24.30;55.30
16032;DHT22;8120;48.308;8.914;2023-07-28T09:05:39;23.80;56.90
16032;DHT22;8120;48.308;8.914;2023-07-28T09:08:08;24.10;56.00
16032;DHT22;8120;48.308;8.914;2023-07-28T09:10:44;25.20;53.50
16032;DHT22;8120;48.308;8.914;2023-07-28T09:13:13;24.70;55.00
16032;DHT22;8120;48.308;8.914;2023-07-28T09:15:43;25.60;52.70
16032;DHT22;8120;48.308;8.914;2023-07-28T09:18:13;25.40;52.30
16032;DHT22;8120;48.308;8.914;2023-07-28T09:20:41;25.20;51.50
16032;DHT22;8120;48.308;8.914;2023-07-28T09:23:14;24.40;53.80
16032;DHT22;8120;48.308;8.914;2023-07-28T09:25:44;24.70;53.20
16032;DHT22;8120;48.308;8.914;2023-07-28T09:28:12;25.30;52.30
16032;DHT22;8120;48.308;8.914;2023-07-28T09:30:45;25.40;51.90
16032;DHT22;8120;48.308;8.914;2023-07-28T09:33:14;25.00;53.80
16032;DHT22;8120;48.308;8.914;2023-07-28T09:35:55;24.60;53.50
16032;DHT22;8120;48.308;8.914;2023-07-28T09:38:27;25.20;53.20
16032;DHT22;8120;48.308;8.914;2023-07-28T09:40:58;24.30;53.90
16032;DHT22;8120;48.308;8.914;2023-07-28T09:43:26;23.90;54.10
16032;DHT22;8120;48.308;8.914;2023-07-28T09:45:55;24.50;53.20
16032;DHT22;8120;48.308;8.914;2023-07-28T09:48:24;24.90;52.90
16032;DHT22;8120;48.308;8.914;2023-07-28T09:50:53;25.10;52.20
16032;DHT22;8120;48.308;8.914;2023-07-28T09:53:22;24.90;53.90
16032;DHT22;8120;48.308;8.914;2023-07-28T09:55:51;25.60;52.10
16032;DHT22;8120;48.308;8.914;2023-07-28T09:58:21;24.90;52.60
16032;DHT22;8120;48.308;8.914;2023-07-28T10:00:50;24.90;51.90
16032;DHT22;8120;48.308;8.914;2023-07-28T10:03:18;24.80;53.70
16032;DHT22;8120;48.308;8.914;2023-07-28T10:05:47;25.00;52.40
16032;DHT22;8120;48.308;8.914;2023-07-28T10:08:15;25.20;52.10
16032;DHT22;8120;48.308;8.914;2023-07-28T10:10:44;25.50;51.40
16032;DHT22;8120;48.308;8.914;2023-07-28T10:13:21;25.40;50.60
16032;DHT22;8120;48.308;8.914;2023-07-28T10:15:49;24.70;51.50
16032;DHT22;8120;48.308;8.914;2023-07-28T10:18:20;24.30;53.40
16032;DHT22;8120;48.308;8.914;2023-07-28T10:20:48;24.00;51.90
16032;DHT22;8120;48.308;8.914;2023-07-28T10:23:20;23.40;53.00
16032;DHT22;8120;48.308;8.914;2023-07-28T10:25:56;23.40;52.40
16032;DHT22;8120;48.308;8.914;2023-07-28T10:28:28;23.60;53.00
16032;DHT22;8120;48.308;8.914;2023-07-28T10:30:59;24.00;52.10
16032;DHT22;8120;48.308;8.914;2023-07-28T10:33:32;24.40;50.50
16032;DHT22;8120;48.308;8.914;2023-07-28T10:36:12;24.70;50.90
16032;DHT22;8120;48.308;8.914;2023-07-28T10:38:41;25.10;50.40
16032;DHT22;8120;48.308;8.914;2023-07-28T10:41:13;25.70;48.50
16032;DHT22;8120;48.308;8.914;2023-07-28T10:43:43;25.20;49.60
16032;DHT22;8120;48.308;8.914;2023-07-28T10:46:13;25.00;50.60
16032;DHT22;8120;48.308;8.914;2023-07-28T10:48:43;24.30;51.40
16032;DHT22;8120;48.308;8.914;2023-07-28T10:51:11;24.30;51.40
16032;DHT22;8120;48.308;8.914;2023-07-28T10:53:39;24.40;51.90
16032;DHT22;8120;48.308;8.914;2023-07-28T10:56:08;24.10;52.40
16032;DHT22;8120;48.308;8.914;2023-07-28T10:58:37;24.10;53.20
16032;DHT22;8120;48.308;8.914;2023-07-28T11:01:07;23.80;52.60
16032;DHT22;8120;48.308;8.914;2023-07-28T11:03:35;23.70;53.80
16032;DHT22;8120;48.308;8.914;2023-07-28T11:06:03;23.80;53.60
16032;DHT22;8120;48.308;8.914;2023-07-28T11:08:32;23.60;53.70
16032;DHT22;8120;48.308;8.914;2023-07-28T11:11:04;23.60;54.00
16032;DHT22;8120;48.308;8.914;2023-07-28T11:13:32;23.40;54.50
16032;DHT22;8120;48.308;8.914;2023-07-28T11:16:08;23.30;54.30
16032;DHT22;8120;48.308;8.914;2023-07-28T11:18:37;23.20;55.10
16032;DHT22;8120;48.308;8.914;2023-07-28T11:21:05;23.20;55.10
16032;DHT22;8120;48.308;8.914;2023-07-28T11:23:33;22.90;55.80
16032;DHT22;8120;48.308;8.914;2023-07-28T11:26:01;22.80;56.10
16032;DHT22;8120;48.308;8.914;2023-07-28T11:28:29;22.70;57.00
16032;DHT22;8120;48.308;8.914;2023-07-28T11:30:57;22.70;54.70
16032;DHT22;8120;48.308;8.914;2023-07-28T11:33:28;22.60;54.90
16032;DHT22;8120;48.308;8.914;2023-07-28T11:35:56;22.70;54.40
16032;DHT22;8120;48.308;8.914;2023-07-28T11:38:25;23.10;54.40
16032;DHT22;8120;48.308;8.914;2023-07-28T11:40:53;23.60;53.50
16032;DHT22;8120;48.308;8.914;2023-07-28T11:43:22;24.10;52.40
16032;DHT22;8120;48.308;8.914;2023-07-28T11:45:51;24.30;51.40
16032;DHT22;8120;48.308;8.914;2023-07-28T11:48:18;24.30;51.50
16032;DHT22;8120;48.308;8.914;2023-07-28T11:50:48;24.60;51.10
16032;DHT22;8120;48.308;8.914;2023-07-28T11:53:20;24.60;51.40
16032;DHT22;8120;48.308;8.914;2023-07-28T11:55:48;24.50;51.30
16032;DHT22;8120;48.308;8.914;2023-07-28T11:58:16;24.10;51.90
16032;DHT22;8120;48.308;8.914;2023-07-28T12:00:44;24.30;52.10
16032;DHT22;8120;48.308;8.914;2023-07-28T12:03:12;24.10;52.20
16032;DHT22;8120;48.308;8.914;2023-07-28T12:06:03;23.90;53.30
16032;DHT22;8120;48.308;8.914;2023-07-28T12:08:35;23.90;52.90
16032;DHT22;8120;48.308;8.914;2023-07-28T12:11:03;24.00;53.00
16032;DHT22;8120;48.308;8.914;2023-07-28T12:13:47;24.20;52.80
16032;DHT22;8120;48.308;8.914;2023-07-28T12:16:39;24.10;52.40
16032;DHT22;8120;48.308;8.914;2023-07-28T12:19:11;24.00;53.00
16032;DHT22;8120;48.308;8.914;2023-07-28T12:21:40;24.10;52.30
16032;DHT22;8120;48.308;8.914;2023-07-28T12:24:09;23.70;52.40
16032;DHT22;8120;48.308;8.914;2023-07-28T12:26:36;23.90;52.80
16032;DHT22;8120;48.308;8.914;2023-07-28T12:29:06;23.90;52.60
16032;DHT22;8120;48.308;8.914;2023-07-28T12:31:37;23.80;52.60
16032;DHT22;8120;48.308;8.914;2023-07-28T12:34:08;23.80;52.50
16032;DHT22;8120;48.308;8.914;2023-07-28T12:36:36;23.90;51.60
16032;DHT22;8120;48.308;8.914;2023-07-28T12:39:08;24.00;52.40
16032;DHT22;8120;48.308;8.914;2023-07-28T12:41:39;24.30;51.40
16032;DHT22;8120;48.308;8.914;2023-07-28T12:44:10;23.90;50.70
16032;DHT22;8120;48.308;8.914;2023-07-28T12:46:42;23.70;51.80
16032;DHT22;8120;48.308;8.914;2023-07-28T12:49:11;23.60;52.80
16032;DHT22;8120;48.308;8.914;2023-07-28T12:51:41;23.60;53.30
16032;DHT22;8120;48.308;8.914;2023-07-28T12:54:25;23.70;53.40
16032;DHT22;8120;48.308;8.914;2023-07-28T12:56:54;23.70;52.90
16032;DHT22;8120;48.308;8.914;2023-07-28T12:59:25;23.80;51.70
16032;DHT22;8120;48.308;8.914;2023-07-28T13:01:53;23.60;51.90
16032;DHT22;8120;48.308;8.914;2023-07-28T13:04:21;23.60;52.70
16032;DHT22;8120;48.308;8.914;2023-07-28T13:06:49;23.50;52.50
16032;DHT22;8120;48.308;8.914;2023-07-28T13:09:18;23.30;51.10
16032;DHT22;8120;48.308;8.914;2023-07-28T13:11:50;23.20;52.40
16032;DHT22;8120;48.308;8.914;2023-07-28T13:14:21;23.20;52.00
16032;DHT22;8120;48.308;8.914;2023-07-28T13:16:48;23.10;52.50
16032;DHT22;8120;48.308;8.914;2023-07-28T13:19:17;22.90;53.10
16032;DHT22;8120;48.308;8.914;2023-07-28T13:21:45;23.00;53.80
16032;DHT22;8120;48.308;8.914;2023-07-28T13:24:12;22.80;55.60
16032;DHT22;8120;48.308;8.914;2023-07-28T13:26:40;22.60;57.30
16032;DHT22;8120;48.308;8.914;2023-07-28T13:29:09;22.40;58.20
16032;DHT22;8120;48.308;8.914;2023-07-28T13:31:37;22.30;59.00
16032;DHT22;8120;48.308;8.914;2023-07-28T13:34:05;22.30;59.30
16032;DHT22;8120;48.308;8.914;2023-07-28T13:36:34;22.30;59.30
16032;DHT22;8120;48.308;8.914;2023-07-28T13:39:02;22.40;58.30
16032;DHT22;8120;48.308;8.914;2023-07-28T13:41:31;22.30;58.20
16032;DHT22;8120;48.308;8.914;2023-07-28T13:43:59;22.30;58.30
16032;DHT22;8120;48.308;8.914;2023-07-28T13:46:30;22.20;58.60
16032;DHT22;8120;48.308;8.914;2023-07-28T13:48:58;22.20;58.40
16032;DHT22;8120;48.308;8.914;2023-07-28T13:51:33;21.80;59.10
16032;DHT22;8120;48.308;8.914;2023-07-28T13:54:04;21.80;59.60
16032;DHT22;8120;48.308;8.914;2023-07-28T13:56:35;21.70;59.90
16032;DHT22;8120;48.308;8.914;2023-07-28T13:59:03;21.50;61.20
16032;DHT22;8120;48.308;8.914;2023-07-28T14:01:33;21.50;62.90
16032;DHT22;8120;48.308;8.914;2023-07-28T14:04:01;21.50;66.00
16032;DHT22;8120;48.308;8.914;2023-07-28T14:06:29;21.30;67.50
16032;DHT22;8120;48.308;8.914;2023-07-28T14:08:57;21.40;65.80
16032;DHT22;8120;48.308;8.914;2023-07-28T14:11:25;21.70;64.90
16032;DHT22;8120;48.308;8.914;2023-07-28T14:13:53;21.90;64.70
16032;DHT22;8120;48.308;8.914;2023-07-28T14:16:20;22.00;62.00
16032;DHT22;8120;48.308;8.914;2023-07-28T14:18:50;22.30;61.20
16032;DHT22;8120;48.308;8.914;2023-07-28T14:21:18;22.30;60.30
16032;DHT22;8120;48.308;8.914;2023-07-28T14:23:46;22.70;58.90
16032;DHT22;8120;48.308;8.914;2023-07-28T14:26:13;23.00;57.50
16032;DHT22;8120;48.308;8.914;2023-07-28T14:28:42;23.10;55.40
16032;DHT22;8120;48.308;8.914;2023-07-28T14:31:10;23.30;54.50
16032;DHT22;8120;48.308;8.914;2023-07-28T14:33:38;23.40;54.30
16032;DHT22;8120;48.308;8.914;2023-07-28T14:36:07;23.20;54.10
16032;DHT22;8120;48.308;8.914;2023-07-28T14:38:35;23.30;53.10
16032;DHT22;8120;48.308;8.914;2023-07-28T14:41:03;23.00;54.40
16032;DHT22;8120;48.308;8.914;2023-07-28T14:43:31;22.90;55.90
16032;DHT22;8120;48.308;8.914;2023-07-28T14:45:59;22.80;55.60
16032;DHT22;8120;48.308;8.914;2023-07-28T14:48:27;22.90;55.80
16032;DHT22;8120;48.308;8.914;2023-07-28T14:50:54;23.10;55.80
16032;DHT22;8120;48.308;8.914;2023-07-28T14:53:31;22.70;56.70
16032;DHT22;8120;48.308;8.914;2023-07-28T14:56:00;22.90;54.70
16032;DHT22;8120;48.308;8.914;2023-07-28T14:58:28;22.70;54.20
16032;DHT22;8120;48.308;8.914;2023-07-28T15:00:57;22.60;55.00
16032;DHT22;8120;48.308;8.914;2023-07-28T15:03:27;22.50;54.70
16032;DHT22;8120;48.308;8.914;2023-07-28T15:05:55;22.40;55.00
16032;DHT22;8120;48.308;8.914;2023-07-28T15:08:24;22.20;56.30
16032;DHT22;8120;48.308;8.914;2023-07-28T15:10:53;22.10;56.60
16032;DHT22;8120;48.308;8.914;2023-07-28T15:13:21;22.00;56.90
16032;DHT22;8120;48.308;8.914;2023-07-28T15:15:49;22.10;57.00
16032;DHT22;8120;48.308;8.914;2023-07-28T15:18:17;22.00;57.50
16032;DHT22;8120;48.308;8.914;2023-07-28T15:20:45;22.10;58.10
16032;DHT22;8120;48.308;8.914;2023-07-28T15:23:13;21.80;58.60
16032;DHT22;8120;48.308;8.914;2023-07-28T15:25:41;21.70;58.90
16032;DHT22;8120;48.308;8.914;2023-07-28T15:28:12;21.70;58.90
16032;DHT22;8120;48.308;8.914;2023-07-28T15:30:40;21.70;58.70
16032;DHT22;8120;48.308;8.914;2023-07-28T15:33:12;21.70;59.20
16032;DHT22;8120;48.308;8.914;2023-07-28T15:35:40;21.70;59.50
16032;DHT22;8120;48.308;8.914;2023-07-28T15:38:08;21.70;60.60
16032;DHT22;8120;48.308;8.914;2023-07-28T15:40:36;21.50;61.10
16032;DHT22;8120;48.308;8.914;2023-07-28T15:43:04;21.60;60.40
16032;DHT22;8120;48.308;8.914;2023-07-28T15:45:33;21.40;60.80
16032;DHT22;8120;48.308;8.914;2023-07-28T15:48:01;21.40;62.60
16032;DHT22;8120;48.308;8.914;2023-07-28T15:50:29;21.30;63.40
16032;DHT22;8120;48.308;8.914;2023-07-28T15:52:56;21.10;64.50
16032;DHT22;8120;48.308;8.914;2023-07-28T15:55:24;21.00;65.30
16032;DHT22;8120;48.308;8.914;2023-07-28T15:57:52;20.90;66.70